createdAt,value
2019-02-14T00:00:45.533Z,6.8
2019-02-14T00:06:40.568Z,11.44
2019-02-14T00:12:35.574Z,7.28
2019-02-14T00:18:30.558Z,7.99
2019-02-14T00:24:25.551Z,5.23
2019-02-14T00:30:20.552Z,6.54
2019-02-14T00:36:15.551Z,6.92
2019-02-14T00:42:10.548Z,7.89
2019-02-14T00:48:05.580Z,9.71
2019-02-14T00:54:00.598Z,11.97
2019-02-14T00:59:55.579Z,26.7
2019-02-14T01:05:50.629Z,21.77
2019-02-14T01:11:45.591Z,7.57
2019-02-14T01:17:40.613Z,8.96
2019-02-14T01:23:35.595Z,10.28
2019-02-14T01:29:30.576Z,7.56
2019-02-14T01:35:25.625Z,6.25
2019-02-14T01:41:20.633Z,9.45
2019-02-14T01:47:15.559Z,14.11
2019-02-14T01:53:10.577Z,12.4
2019-02-14T01:59:05.638Z,8.23
2019-02-14T02:05:00.584Z,9.46
2019-02-14T02:10:55.653Z,7.46
2019-02-14T02:16:50.632Z,7.52
2019-02-14T02:22:45.614Z,11.85
2019-02-14T02:28:40.593Z,31.53
2019-02-14T02:34:35.673Z,9.08
2019-02-14T02:40:30.626Z,8.41
2019-02-14T02:46:25.630Z,10.72
2019-02-14T02:52:20.599Z,10.05
2019-02-14T02:58:15.637Z,8.84
2019-02-14T03:04:10.605Z,10.83
2019-02-14T03:10:05.601Z,9.7
2019-02-14T03:16:00.608Z,12.26
2019-02-14T03:21:55.582Z,7.58
2019-02-14T03:27:50.651Z,5.13
2019-02-14T03:33:45.674Z,7.9
2019-02-14T03:39:40.610Z,9.45
2019-02-14T03:45:35.608Z,6.95
2019-02-14T03:51:30.612Z,4.8
2019-02-14T03:57:25.639Z,7.8
2019-02-14T04:03:20.594Z,5.03
2019-02-14T04:09:15.589Z,11.17
2019-02-14T04:15:10.606Z,5.01
2019-02-14T04:21:05.613Z,8.57
2019-02-14T04:27:00.609Z,17.21
2019-02-14T04:32:55.609Z,11.32
2019-02-14T04:38:50.633Z,7.02
2019-02-14T04:44:45.642Z,6.86
2019-02-14T04:50:40.641Z,6.82
2019-02-14T04:56:35.595Z,6.08
2019-02-14T05:02:30.615Z,5
2019-02-14T05:08:25.636Z,3.14
2019-02-14T05:14:20.657Z,2.78
2019-02-14T05:20:15.657Z,9.13
2019-02-14T05:26:10.645Z,2.67
2019-02-14T05:32:05.625Z,2.59
2019-02-14T05:38:00.715Z,14.48
2019-02-14T05:43:55.650Z,12.38
2019-02-14T05:49:50.624Z,10.28
2019-02-14T05:55:45.643Z,7.64
2019-02-14T06:01:40.645Z,7.72
2019-02-14T06:07:35.663Z,6.06
2019-02-14T06:13:30.634Z,6.79
2019-02-14T06:19:25.661Z,4.75
2019-02-14T06:25:20.749Z,4.85
2019-02-14T06:31:15.638Z,14.4
2019-02-14T06:37:10.638Z,8.6
2019-02-14T06:43:05.637Z,12.55
2019-02-14T06:49:00.639Z,13.51
2019-02-14T06:54:55.665Z,17.02
2019-02-14T07:00:50.635Z,20
2019-02-14T07:06:45.694Z,12.04
2019-02-14T07:12:40.632Z,12.11
2019-02-14T07:18:35.714Z,15.35
2019-02-14T07:24:30.656Z,11.38
2019-02-14T07:30:25.668Z,14.22
2019-02-14T07:36:20.659Z,18.12
2019-02-14T07:42:15.681Z,17.25
2019-02-14T07:48:10.656Z,16.08
2019-02-14T07:54:05.656Z,17.93
2019-02-14T08:00:00.686Z,15.72
2019-02-14T08:05:55.684Z,15.54
2019-02-14T08:11:50.643Z,16.81
2019-02-14T08:17:45.661Z,20.19
2019-02-14T08:23:40.708Z,13.02
2019-02-14T08:29:35.753Z,17.38
2019-02-14T08:35:30.666Z,15.43
2019-02-14T08:41:25.687Z,20.82
2019-02-14T08:47:20.664Z,27.76
2019-02-14T08:53:15.708Z,22.3
2019-02-14T08:59:10.676Z,24.13
2019-02-14T09:05:05.701Z,24.32
2019-02-14T09:11:00.704Z,24.21
2019-02-14T09:16:55.672Z,21.68
2019-02-14T09:22:50.669Z,20.94
2019-02-14T09:28:45.691Z,20.57
2019-02-14T09:34:40.683Z,24.86
2019-02-14T09:40:35.725Z,30.36
2019-02-14T09:46:30.684Z,23.21
2019-02-14T09:52:25.672Z,18.16
2019-02-14T09:58:22.452Z,25.16
2019-02-14T10:04:15.671Z,24.41
2019-02-14T10:10:10.680Z,23.59
2019-02-14T10:16:05.685Z,25.59
2019-02-14T10:22:00.716Z,22.43
2019-02-14T10:27:55.672Z,23.57
2019-02-14T10:33:50.683Z,26.23
2019-02-14T10:39:45.692Z,23.37
2019-02-14T10:45:40.716Z,15.81
2019-02-14T10:51:35.697Z,21.3
2019-02-14T10:57:30.681Z,16.57
2019-02-14T11:03:25.688Z,19.51
2019-02-14T11:09:20.758Z,19.04
2019-02-14T11:15:15.705Z,18
2019-02-14T11:21:10.686Z,18.2
2019-02-14T11:27:05.711Z,16.05
2019-02-14T11:33:00.707Z,12.87
2019-02-14T11:38:55.736Z,14.36
2019-02-14T11:44:50.688Z,12.69
2019-02-14T11:50:45.696Z,10.92
2019-02-14T11:56:40.735Z,8.82
2019-02-14T12:02:37.753Z,13.7
2019-02-14T12:08:30.716Z,11.66
2019-02-14T12:14:25.696Z,8.21
2019-02-14T12:20:20.740Z,9.3
2019-02-14T12:26:15.705Z,9.06
2019-02-14T12:32:10.717Z,7.45
2019-02-14T12:38:05.727Z,5
2019-02-14T12:44:00.715Z,5.62
2019-02-14T12:49:55.730Z,8.2
2019-02-14T12:55:50.716Z,8.27
2019-02-14T13:01:45.697Z,8.99
2019-02-14T13:07:40.733Z,8.9
2019-02-14T13:13:35.711Z,10.06
2019-02-14T13:19:30.703Z,13.01
2019-02-14T13:25:25.727Z,15.27
2019-02-14T13:31:20.748Z,10.38
2019-02-14T13:37:15.742Z,10.89
2019-02-14T13:43:10.745Z,10.51
2019-02-14T13:49:05.735Z,7.83
2019-02-14T13:55:00.839Z,10.8
2019-02-14T14:00:55.737Z,12
2019-02-14T14:06:50.771Z,10.07
2019-02-14T14:12:45.754Z,7.38
2019-02-14T14:18:40.771Z,8.58
2019-02-14T14:24:35.757Z,8.59
2019-02-14T14:30:30.749Z,10.86
2019-02-14T14:36:25.872Z,9.49
2019-02-14T14:42:20.759Z,9.29
2019-02-14T14:48:19.430Z,6.5
2019-02-14T14:54:10.751Z,6.96
2019-02-14T15:00:05.757Z,8.08
2019-02-14T15:06:00.776Z,8.6
2019-02-14T15:11:55.787Z,7.18
2019-02-14T15:17:50.799Z,9.41
2019-02-14T15:23:45.767Z,8.89
2019-02-14T15:29:40.777Z,8.1
2019-02-14T15:35:35.759Z,8.53
2019-02-14T15:41:30.835Z,9.11
2019-02-14T15:47:25.865Z,10
2019-02-14T15:53:21.490Z,17.39
2019-02-14T15:59:16.768Z,8.02
2019-02-14T16:05:10.773Z,12.6
2019-02-14T16:11:05.804Z,15.64
2019-02-14T16:17:00.772Z,10.64
2019-02-14T16:22:55.852Z,16.32
2019-02-14T16:28:50.782Z,37.97
2019-02-14T16:34:45.776Z,24.82
2019-02-14T16:40:40.794Z,19.42
2019-02-14T16:46:35.837Z,18.71
2019-02-14T16:52:30.804Z,17.87
2019-02-14T17:10:46.420Z,80.02
2019-02-14T17:16:41.431Z,167.49
2019-02-14T17:22:36.415Z,29.02
2019-02-14T17:28:31.395Z,32.77
2019-02-14T17:34:26.404Z,36.04
2019-02-14T17:40:21.379Z,26.03
2019-02-14T17:46:16.379Z,20.88
2019-02-14T17:52:11.384Z,24.85
2019-02-14T17:58:06.388Z,25.2
2019-02-14T18:04:01.383Z,20.26
2019-02-14T18:09:56.395Z,24.84
2019-02-14T18:15:51.398Z,26.92
2019-02-14T18:21:46.386Z,27.72
2019-02-14T18:27:41.370Z,36.33
2019-02-14T18:33:36.390Z,39.65
2019-02-14T18:39:31.383Z,46.2
2019-02-14T18:45:26.388Z,61.04
2019-02-14T18:51:21.412Z,99.59
2019-02-14T18:57:16.402Z,57.26
2019-02-14T19:03:11.404Z,45.79
2019-02-14T19:09:06.420Z,36.2
2019-02-14T19:15:01.382Z,31.97
2019-02-14T19:20:56.360Z,36.01
2019-02-14T19:26:51.378Z,6.3
2019-02-14T19:32:46.384Z,17.92
2019-02-14T19:38:41.409Z,31.38
2019-02-14T19:44:36.396Z,25.3
2019-02-14T19:50:31.406Z,75.15
2019-02-14T19:56:26.391Z,39.11
2019-02-14T20:02:21.442Z,33.55
2019-02-14T20:08:16.405Z,28.8
2019-02-14T20:14:11.418Z,15.51
2019-02-14T20:20:06.439Z,20.21
2019-02-14T20:26:01.402Z,24.92
2019-02-14T20:31:56.397Z,29.12
2019-02-14T20:37:51.411Z,23.57
2019-02-14T20:43:46.472Z,17.37
2019-02-14T20:49:41.407Z,32.52
2019-02-14T20:55:36.423Z,26.67
2019-02-14T21:01:31.452Z,14.83
2019-02-14T21:07:26.426Z,32.48
2019-02-14T21:13:21.455Z,31.39
2019-02-14T21:19:16.424Z,28.8
2019-02-14T21:25:11.489Z,46.29
2019-02-14T21:31:06.504Z,30.52
2019-02-14T21:37:01.446Z,26.08
2019-02-14T21:42:56.457Z,22.68
2019-02-14T21:48:51.458Z,14.6
2019-02-14T21:54:46.460Z,17.04
2019-02-14T22:00:41.421Z,12.94
2019-02-14T22:06:36.434Z,15.85
2019-02-14T22:12:39.466Z,14.2
2019-02-14T22:18:26.467Z,12.65
2019-02-14T22:24:21.515Z,14.78
2019-02-14T22:30:16.475Z,13.77
2019-02-14T22:36:11.442Z,10.88
2019-02-14T22:42:06.434Z,18.3
2019-02-14T22:48:01.444Z,26.18
2019-02-14T22:53:56.425Z,26.86
2019-02-14T22:59:51.416Z,27.27
2019-02-14T23:05:46.431Z,26.5
2019-02-14T23:11:41.439Z,26.57
2019-02-14T23:17:36.463Z,52.28
2019-02-14T23:23:31.447Z,27.06
2019-02-14T23:29:26.463Z,18.86
2019-02-14T23:35:21.436Z,22.73
2019-02-14T23:41:16.438Z,23.7
2019-02-14T23:47:11.443Z,18.24
2019-02-14T23:53:06.462Z,23.85
2019-02-14T23:59:01.441Z,16.61
